Airfield :
LOGIN :

Register | Disclaimer

   EN    FR    IT 

 










Legend :    VFR   Marginal VFR   IFR   Intensive IFR   Very Intensive IFR
Visi :
Ceiling :
>= 8 km
>= 3000ft
5 to 8 km
1000 to 3000 ft
1500m to 5 km
500 to 1000 ft
800 to 1500m
200 to 500 ft
< 800m
< 200 ft
Symbols :   Thunderstorms  Fog  Heavy snow  Heavy precipitations  Wind > 20 kt
SIGMETs :     Misc.  Thunderstorms  Icing  Turbulence  Mountain Waves  Volcanic Ashes






- Airport Elevation : 325 ft
- IATA code : POX


LFPT - Pontoise

CURRENT METAR :
  • 270830Z AUTO 17006KT 140V210 2200 -SNRA BR OVC004 04/03 Q0993

EXPIRED METARs :
  • 270800Z AUTO 17010KT 1700 -SNRA BR OVC004 03/03 Q0994
  • 270730Z AUTO 16011KT 2200 -SNRA BR OVC007 03/02 Q0995
  • 270700Z AUTO 16016G26KT 130V190 5000 -SNRA BR OVC008 03/01 Q0996
  • 270630Z AUTO 17011KT 5000 -SNRA BR BKN008 OVC012 03/02 Q0998
  • 270600Z AUTO 17011KT 6000 -SNRA OVC010 04/02 Q1000
  • 270530Z AUTO 18013KT 8000 -SNRA BKN012 BKN019 OVC025 04/02 Q1001

TAF N/A
ATIS : +33 1 30 30 52 08



MET'MAP, your aeronautical weather chart ! - Copyright ORBIFLY December 2007 - Disclaimer

ORBIFLY MET'MAP TEAM :

Programming & Development : Alexandra Zaïnal
Concept & original design : Baudouin d'Aumeries
Assistance for programming : Marc-Olivier Méhu
Technical & hardware support : Manuel Goepfert

Contact : metmap@orbifly.com




SOURCES & CREDITS :

   NOAA